»·PEaware :: N805RJ KLPC-KTSP

N805RJ :: KLPC-KTSP

FLIGHT INFORMATION

Flight Status: Arrived
Operator: Privately registered:
United States
More flights under this callsign
Pilot: Rickie J. (22768)
Aircraft: CESSNA 172 SKYHAWK
(C172)
More flights by this aircraft type
Origin: KLPC Lompoc
United States
Destination: KTSP Tehachapi Mun
United States
More flights between these airports :: More routes between these airports
Route: AFOXY GVO RZS EMUXY REYES GMN LOPES
File this flight plan on PilotEdge
Remarks:
Altitude:
(Current/Filed)
11,500ft
Speed:
(Current/Filed)
120kts
Departed: 01-Aug-20 02:54 PM
Arrived: 01-Aug-20 03:54 PM
Distance/Time
Traveled:
104nm/1:00
Distance/Time
To Go:
Arrived

Flight Plot

Page will automatically refresh every two minutes.


Map Options




Map Legend


Flown Route
Filed Route
Departure Airport
Arrival Airport
Navaid (VOR, NDB)
Fix

Horizontal Profiles

Position Reports

Time Latitude Longitude Heading Altitude Ground
Speed
01-Aug-20 14:25 34.666805 -120.460486 179 91ft 0kts
01-Aug-20 14:26 34.666805 -120.460486 179 91ft 0kts
01-Aug-20 14:27 34.666805 -120.460486 179 91ft 0kts
01-Aug-20 14:28 34.666805 -120.460486 179 91ft 0kts
01-Aug-20 14:29 34.666805 -120.460486 179 91ft 0kts
01-Aug-20 14:30 34.666805 -120.460486 179 91ft 0kts
01-Aug-20 14:31 34.666805 -120.460486 179 91ft 0kts
01-Aug-20 14:32 34.666804 -120.460486 179 91ft 0kts
01-Aug-20 14:33 34.666805 -120.460486 179 91ft 0kts
01-Aug-20 14:34 34.666805 -120.460486 179 91ft 0kts
01-Aug-20 14:35 34.666805 -120.460486 179 91ft 0kts
01-Aug-20 14:36 34.666805 -120.460486 179 91ft 0kts
01-Aug-20 14:37 34.666805 -120.460486 179 91ft 0kts
01-Aug-20 14:38 34.666805 -120.460486 179 91ft 0kts
01-Aug-20 14:39 34.666805 -120.460486 179 91ft 0kts
01-Aug-20 14:40 34.666805 -120.460486 179 91ft 0kts
01-Aug-20 14:41 34.666805 -120.460486 179 91ft 0kts
01-Aug-20 14:42 34.666805 -120.460486 179 91ft 0kts
01-Aug-20 14:43 34.666805 -120.460486 179 91ft 0kts
01-Aug-20 14:44 34.666805 -120.460486 179 91ft 0kts
01-Aug-20 14:45 34.666805 -120.460486 179 91ft 0kts
01-Aug-20 14:46 34.666805 -120.460486 179 91ft 0kts
01-Aug-20 14:47 34.666782 -120.460486 180 91ft 1kts
01-Aug-20 14:48 34.666194 -120.459994 127 91ft 1kts
01-Aug-20 14:49 34.666181 -120.459985 163 91ft 0kts
01-Aug-20 14:50 34.666181 -120.459985 164 91ft 0kts
01-Aug-20 14:51 34.666181 -120.459985 164 91ft 0kts
01-Aug-20 14:52 34.665903 -120.459974 183 91ft 4kts
01-Aug-20 14:53 34.665707 -120.472620 271 114ft 98kts
01-Aug-20 14:54 34.679666 -120.494606 17 689ft 122kts
01-Aug-20 14:55 34.677447 -120.461132 141 1272ft 117kts
01-Aug-20 14:56 34.654418 -120.433424 141 1867ft 115kts
01-Aug-20 14:57 34.640584 -120.397497 112 2455ft 120kts
01-Aug-20 14:58 34.627617 -120.360283 113 3047ft 119kts
01-Aug-20 14:59 34.614822 -120.323920 117 3641ft 110kts
01-Aug-20 15:00 34.602985 -120.291007 118 4229ft 104kts
01-Aug-20 15:01 34.591568 -120.259068 118 4826ft 102kts
01-Aug-20 15:02 34.580198 -120.227270 116 5425ft 105kts
01-Aug-20 15:03 34.568318 -120.194065 113 6026ft 108kts
01-Aug-20 15:04 34.556507 -120.161034 113 6622ft 104kts
01-Aug-20 15:05 34.545195 -120.129464 113 7177ft 102kts
01-Aug-20 15:06 34.533839 -120.097778 114 7671ft 104kts
01-Aug-20 15:07 34.529654 -120.063527 94 8091ft 108kts
01-Aug-20 15:08 34.527168 -120.027626 94 8479ft 110kts
01-Aug-20 15:09 34.524712 -119.991191 95 8871ft 111kts
01-Aug-20 15:10 34.522199 -119.954109 96 9268ft 111kts
01-Aug-20 15:11 34.519651 -119.916625 96 9667ft 112kts
01-Aug-20 15:12 34.517136 -119.879023 96 10066ft 111kts
01-Aug-20 15:13 34.514594 -119.841447 97 10467ft 111kts
01-Aug-20 15:14 34.511982 -119.803544 97 10808ft 115kts
01-Aug-20 15:15 34.510642 -119.763777 87 11117ft 119kts
01-Aug-20 15:16 34.513534 -119.723300 86 11422ft 121kts
01-Aug-20 15:17 34.516787 -119.680467 86 11506ft 135kts
01-Aug-20 15:18 34.520358 -119.634151 86 11505ft 139kts
01-Aug-20 15:19 34.525346 -119.587356 73 11505ft 140kts
01-Aug-20 15:20 34.538206 -119.542224 70 11505ft 141kts
01-Aug-20 15:21 34.551468 -119.497412 70 11505ft 141kts
01-Aug-20 15:22 34.564832 -119.452444 70 11505ft 141kts
01-Aug-20 15:23 34.578224 -119.407357 70 11505ft 141kts
01-Aug-20 15:24 34.591540 -119.362459 70 11505ft 141kts
01-Aug-20 15:25 34.604566 -119.318475 70 11558ft 137kts
01-Aug-20 15:26 34.617662 -119.274178 70 11539ft 144kts
01-Aug-20 15:27 34.631323 -119.227912 70 11504ft 144kts
01-Aug-20 15:28 34.644841 -119.182046 70 11505ft 143kts
01-Aug-20 15:29 34.658696 -119.136672 60 11505ft 142kts
01-Aug-20 15:30 34.679718 -119.095609 56 11505ft 143kts
01-Aug-20 15:31 34.701335 -119.054876 55 11505ft 143kts
01-Aug-20 15:32 34.723003 -119.014175 55 11505ft 143kts
01-Aug-20 15:33 34.744721 -118.973363 56 11504ft 143kts
01-Aug-20 15:34 34.766514 -118.932371 55 11506ft 143kts
01-Aug-20 15:35 34.789244 -118.889580 55 11140ft 160kts
01-Aug-20 15:36 34.818016 -118.852069 28 10541ft 149kts
01-Aug-20 15:37 34.853319 -118.826905 26 9947ft 145kts
01-Aug-20 15:38 34.888152 -118.802482 27 9354ft 145kts
01-Aug-20 15:39 34.922713 -118.778203 26 8765ft 145kts
01-Aug-20 15:41 34.956747 -118.754299 26 8182ft 144kts
01-Aug-20 15:42 34.990811 -118.730338 26 7595ft 144kts
01-Aug-20 15:43 35.025093 -118.706055 31 7004ft 144kts
01-Aug-20 15:44 35.046782 -118.664453 59 6404ft 147kts
01-Aug-20 15:45 35.068814 -118.622839 49 5805ft 146kts
01-Aug-20 15:46 35.089275 -118.580833 53 5384ft 129kts
01-Aug-20 15:47 35.101042 -118.543478 62 5035ft 106kts
01-Aug-20 15:48 35.109732 -118.512171 54 4993ft 95kts
01-Aug-20 15:49 35.114382 -118.480999 74 5005ft 95kts
01-Aug-20 15:50 35.119557 -118.450531 57 5004ft 89kts
01-Aug-20 15:51 35.111183 -118.421568 74 4837ft 84kts
01-Aug-20 15:52 35.122710 -118.418917 312 4591ft 50kts
01-Aug-20 15:53 35.132039 -118.434042 302 4043ft 56kts
01-Aug-20 15:54 35.135554 -118.440730 216 4004ft 0kts
01-Aug-20 15:55 35.135404 -118.440944 230 4004ft 2kts
01-Aug-20 15:56 35.135259 -118.441245 336 4004ft 0kts
01-Aug-20 15:56 35.135259 -118.441245 336 4004ft 0kts
01-Aug-20 15:58 35.135259 -118.441245 336 4004ft 0kts
01-Aug-20 15:59 35.135259 -118.441245 336 4004ft 0kts
01-Aug-20 15:59 35.135259 -118.441245 336 4004ft 0kts
01-Aug-20 16:00 35.135259 -118.441245 336 4004ft 0kts

Navigation Log

Ident Type
Flight plan parsing failed, navigation log unavailable